Time;durP1;ratioP1;P1;durP2;ratioP2;P2;SDS_P1;SDS_P2;PMS_P1;PMS_P2;Temp;Humidity;BMP_temperature;BMP_pressure;BME280_temperature;BME280_humidity;BME280_pressure;Samples;Min_cycle;Max_cycle;Signal;HPM_P1;HPM_P2
2020/12/31 03:47:43;;;;;;;24.35;11.98;;;0.20;99.90;;;;;;4888986;28;86357;-82
2020/12/31 03:50:08;;;;;;;19.58;11.02;;;0.00;99.90;;;;;;4892046;28;87051;-83
2020/12/31 03:52:34;;;;;;;19.45;11.23;;;0.00;99.90;;;;;;4892883;28;86889;-83
2020/12/31 03:55:00;;;;;;;21.45;11.90;;;0.00;99.90;;;;;;4892285;28;87841;-83
2020/12/31 03:57:25;;;;;;;23.63;12.55;;;0.00;99.90;;;;;;4896582;28;88213;-79
2020/12/31 03:59:51;;;;;;;25.77;14.68;;;0.00;99.90;;;;;;4897210;28;86184;-79
2020/12/31 04:02:40;;;;;;;27.92;12.63;;;0.00;99.90;;;;;;5012253;28;83327;-81
2020/12/31 04:05:07;;;;;;;27.65;14.57;;;-0.10;99.90;;;;;;5010033;28;83474;-78
2020/12/31 04:07:33;;;;;;;23.65;12.68;;;-0.20;99.90;;;;;;5010494;28;83161;-78
2020/12/31 04:09:58;;;;;;;23.58;11.85;;;-0.30;99.90;;;;;;5011535;28;86812;-77
2020/12/31 04:12:24;;;;;;;21.30;11.85;;;-0.30;99.90;;;;;;5008377;28;84184;-81
2020/12/31 04:14:50;;;;;;;24.45;12.95;;;-0.30;99.90;;;;;;5005558;28;83761;-78
2020/12/31 04:17:15;;;;;;;24.42;13.02;;;-0.10;99.90;;;;;;5004568;28;83791;-81
2020/12/31 04:19:41;;;;;;;22.00;11.63;;;-0.40;99.90;;;;;;4998552;28;86085;-80
2020/12/31 04:22:08;;;;;;;14.27;8.73;;;-0.50;99.90;;;;;;4986551;28;83885;-82
2020/12/31 04:24:37;;;;;;;24.73;13.27;;;-0.50;99.90;;;;;;4989661;28;83703;-82
2020/12/31 04:27:03;;;;;;;18.75;10.52;;;-0.60;99.90;;;;;;5005138;28;83931;-83
2020/12/31 04:29:29;;;;;;;16.58;8.60;;;-0.60;99.90;;;;;;5005544;28;83628;-83
2020/12/31 04:31:55;;;;;;;21.85;10.77;;;-0.70;99.90;;;;;;5003666;28;83777;-82
2020/12/31 04:34:21;;;;;;;16.58;9.75;;;-0.70;99.90;;;;;;5005369;28;83910;-82
2020/12/31 04:36:46;;;;;;;20.77;11.23;;;-0.70;99.90;;;;;;5001097;28;83749;-82
2020/12/31 04:39:12;;;;;;;22.95;11.15;;;-0.60;99.90;;;;;;4987424;28;85605;-81
2020/12/31 04:41:38;;;;;;;20.90;11.82;;;-0.60;99.90;;;;;;4997946;28;84376;-82
2020/12/31 04:44:04;;;;;;;19.73;10.15;;;-0.70;99.90;;;;;;4986374;28;83652;-82
2020/12/31 04:46:31;;;;;;;17.45;11.00;;;-0.60;99.90;;;;;;4995060;28;83324;-82
2020/12/31 04:49:11;;;;;;;21.65;12.68;;;-0.70;99.90;;;;;;4986946;28;83573;-83
2020/12/31 04:51:38;;;;;;;18.80;11.32;;;-0.80;99.90;;;;;;4967950;28;83377;-83
2020/12/31 04:54:06;;;;;;;23.98;13.93;;;-0.80;99.90;;;;;;4985639;28;84045;-81
2020/12/31 04:56:35;;;;;;;24.00;12.82;;;-0.80;99.90;;;;;;4985348;28;83550;-82
2020/12/31 04:59:01;;;;;;;16.75;9.80;;;-0.90;99.90;;;;;;4984078;28;84205;-83
2020/12/31 05:01:27;;;;;;;19.55;10.45;;;-0.90;99.90;;;;;;4984846;28;85001;-81
2020/12/31 05:03:53;;;;;;;17.08;10.80;;;-0.90;99.90;;;;;;4972362;28;84122;-82
2020/12/31 05:06:21;;;;;;;21.85;10.77;;;-0.90;99.90;;;;;;4969064;28;84092;-82
2020/12/31 05:08:46;;;;;;;16.33;10.10;;;-0.90;99.90;;;;;;4982102;28;87477;-82
2020/12/31 05:11:12;;;;;;;17.02;9.63;;;-0.90;99.90;;;;;;4984291;28;84550;-82
2020/12/31 05:13:53;;;;;;;14.93;6.97;;;-0.90;99.90;;;;;;4968348;28;84026;-82
2020/12/31 05:16:29;;;;;;;12.23;5.80;;;-0.90;99.90;;;;;;4974154;28;83731;-82
2020/12/31 05:18:56;;;;;;;10.38;6.57;;;-0.70;99.90;;;;;;4962805;28;84099;-82
2020/12/31 05:21:22;;;;;;;8.88;6.15;;;-0.60;99.90;;;;;;4961215;28;83541;-82
2020/12/31 05:23:47;;;;;;;5.95;4.80;;;-0.60;99.90;;;;;;4973106;28;83829;-81
2020/12/31 05:26:33;;;;;;;4.28;2.92;;;-0.50;99.90;;;;;;4971558;28;85374;-82
2020/12/31 05:28:59;;;;;;;7.60;4.43;;;-0.40;99.90;;;;;;4960943;28;84037;-81
2020/12/31 05:31:24;;;;;;;7.10;4.75;;;-0.30;99.90;;;;;;4975007;28;84549;-83
2020/12/31 05:33:50;;;;;;;7.25;4.43;;;-0.30;99.90;;;;;;4960918;28;84721;-80
2020/12/31 05:36:25;;;;;;;6.50;4.47;;;-0.30;99.90;;;;;;4970670;28;83708;-82
2020/12/31 05:39:06;;;;;;;6.90;3.75;;;-0.30;99.90;;;;;;4970253;28;84290;-82
2020/12/31 05:41:33;;;;;;;6.80;4.82;;;-0.30;99.90;;;;;;4961920;28;84211;-82
2020/12/31 05:44:07;;;;;;;6.85;5.43;;;-0.40;99.90;;;;;;4959063;28;83955;-80
2020/12/31 05:46:34;;;;;;;9.55;7.13;;;-0.50;99.90;;;;;;4962332;28;84234;-82
2020/12/31 05:49:09;;;;;;;10.68;6.13;;;-0.50;99.90;;;;;;4966795;28;83737;-82
2020/12/31 05:51:41;;;;;;;10.60;7.10;;;-0.70;99.90;;;;;;4973377;28;83950;-82
2020/12/31 05:54:11;;;;;;;9.88;5.72;;;-0.80;99.90;;;;;;4970570;28;84159;-82
2020/12/31 05:56:39;;;;;;;11.82;7.28;;;-0.80;99.90;;;;;;4973601;28;83652;-81
2020/12/31 05:59:14;;;;;;;13.57;7.30;;;-0.90;99.90;;;;;;4968492;28;84175;-82
2020/12/31 06:01:57;;;;;;;12.02;7.80;;;-1.00;99.90;;;;;;4971506;28;83848;-82
2020/12/31 06:04:46;;;;;;;11.85;6.45;;;-1.10;99.90;;;;;;4967850;28;83584;-83
2020/12/31 06:07:32;;;;;;;10.63;6.50;;;-1.00;99.90;;;;;;4966253;28;83816;-83
2020/12/31 06:10:07;;;;;;;11.30;6.00;;;-1.10;99.90;;;;;;4971490;28;85263;-82
2020/12/31 06:12:59;;;;;;;12.18;6.53;;;-1.10;99.90;;;;;;4957182;28;83860;-81
2020/12/31 06:15:38;;;;;;;10.75;7.03;;;-1.20;99.90;;;;;;4971190;28;83023;-82
2020/12/31 06:18:06;;;;;;;9.75;5.82;;;-1.30;99.90;;;;;;4963396;28;83765;-83
2020/12/31 06:20:33;;;;;;;10.70;5.45;;;-1.30;99.90;;;;;;4965137;28;84073;-83
2020/12/31 06:23:09;;;;;;;10.40;5.55;;;-1.30;99.90;;;;;;4978759;28;84899;-81
2020/12/31 06:25:40;;;;;;;9.27;6.18;;;-1.30;99.90;;;;;;4970470;28;83745;-83
2020/12/31 06:28:21;;;;;;;;;;;-1.40;99.90;;;;;;4971984;28;83474;-83
2020/12/31 06:30:49;;;;;;;7.70;5.00;;;-1.40;99.90;;;;;;4972934;28;84493;-83
2020/12/31 06:33:39;;;;;;;9.63;5.50;;;-1.40;99.90;;;;;;4968412;28;84210;-82
2020/12/31 06:36:05;;;;;;;8.82;5.35;;;-1.40;99.90;;;;;;4971432;28;83598;-84
2020/12/31 06:38:47;;;;;;;8.88;5.43;;;-1.40;99.90;;;;;;4973712;28;83569;-81
2020/12/31 06:41:31;;;;;;;8.35;5.55;;;-1.40;99.90;;;;;;4970920;28;84181;-82
2020/12/31 06:44:07;;;;;;;9.00;6.47;;;-1.40;99.90;;;;;;4970917;28;83977;-82
2020/12/31 06:46:39;;;;;;;8.48;6.03;;;-1.40;99.90;;;;;;4970306;28;83677;-82
2020/12/31 06:49:05;;;;;;;9.43;5.60;;;-1.40;99.90;;;;;;4976314;28;84132;-79
2020/12/31 06:51:32;;;;;;;10.23;5.80;;;-1.50;99.90;;;;;;4968333;28;84146;-82
2020/12/31 06:53:58;;;;;;;10.98;5.47;;;-1.50;99.90;;;;;;4969715;28;84727;-81
2020/12/31 06:56:48;;;;;;;9.73;5.68;;;-1.50;99.90;;;;;;4970758;28;83681;-82
2020/12/31 06:59:32;;;;;;;8.55;5.28;;;-1.50;99.90;;;;;;4969615;28;83494;-82
2020/12/31 07:02:10;;;;;;;7.65;5.13;;;-1.60;99.90;;;;;;4969583;28;84355;-83
2020/12/31 07:04:41;;;;;;;8.15;5.22;;;-1.60;99.90;;;;;;4965955;28;84010;-83
2020/12/31 07:07:19;;;;;;;10.45;5.57;;;-1.50;99.90;;;;;;4967209;28;83809;-83
2020/12/31 07:09:54;;;;;;;7.60;5.32;;;-1.60;99.90;;;;;;4964994;28;83720;-81
2020/12/31 07:12:45;;;;;;;8.90;5.43;;;-1.50;99.90;;;;;;4963472;28;84724;-81
2020/12/31 07:15:15;;;;;;;9.17;5.33;;;-1.50;99.90;;;;;;4970201;28;83732;-82
2020/12/31 07:17:45;;;;;;;9.90;5.10;;;-1.50;99.90;;;;;;4969551;28;83800;-83
2020/12/31 07:20:13;;;;;;;10.43;4.83;;;-1.50;99.90;;;;;;4961569;28;83619;-80
2020/12/31 07:22:41;;;;;;;10.00;5.38;;;-1.50;99.90;;;;;;4967768;28;84340;-82
2020/12/31 07:25:07;;;;;;;9.57;5.13;;;-1.50;99.90;;;;;;4967644;28;83894;-82
2020/12/31 07:27:44;;;;;;;7.22;4.55;;;-1.50;99.90;;;;;;4970689;28;83625;-81
2020/12/31 07:30:18;;;;;;;10.80;5.00;;;-1.50;99.90;;;;;;4969910;28;83008;-83
2020/12/31 07:32:59;;;;;;;9.18;4.95;;;-1.50;99.90;;;;;;4972674;28;85721;-82
2020/12/31 07:35:29;;;;;;;9.35;4.68;;;-1.50;99.90;;;;;;4964957;28;84415;-81
2020/12/31 07:37:59;;;;;;;7.53;5.38;;;-1.50;99.90;;;;;;4965773;28;83522;-82
2020/12/31 07:40:35;;;;;;;7.88;5.03;;;-1.10;99.90;;;;;;4970383;28;83786;-82
2020/12/31 07:43:02;;;;;;;5.50;4.13;;;-1.40;99.90;;;;;;4970376;28;84260;-82
2020/12/31 07:45:28;;;;;;;6.57;5.22;;;;;;;;;;4973812;28;83965;-83
2020/12/31 07:47:55;;;;;;;12.18;5.30;;;-1.30;99.90;;;;;;4970058;28;83702;-84
2020/12/31 07:50:22;;;;;;;7.22;4.75;;;-1.20;99.90;;;;;;4966555;28;83202;-81
2020/12/31 07:52:49;;;;;;;12.10;6.10;;;-0.60;99.90;;;;;;4974795;28;84347;-82
2020/12/31 07:55:15;;;;;;;8.45;5.03;;;-1.10;99.90;;;;;;4969073;28;83904;-82
2020/12/31 07:57:41;;;;;;;8.23;4.68;;;-0.80;99.90;;;;;;4966657;28;83554;-83
2020/12/31 08:00:19;;;;;;;4.13;2.42;;;-0.60;99.90;;;;;;4975043;28;83776;-83
2020/12/31 08:02:46;;;;;;;3.92;2.35;;;-0.30;99.90;;;;;;4975210;28;84636;-83
2020/12/31 08:05:14;;;;;;;2.03;1.92;;;0.50;91.20;;;;;;4969715;28;86824;-83
2020/12/31 08:07:40;;;;;;;2.55;1.55;;;0.50;91.40;;;;;;4973415;28;83925;-84
2020/12/31 08:10:08;;;;;;;2.17;1.90;;;1.00;86.60;;;;;;4976448;28;83704;-80
2020/12/31 08:12:34;;;;;;;1.05;1.00;;;1.10;85.50;;;;;;4985136;28;83739;-79
2020/12/31 08:15:08;;;;;;;2.28;1.50;;;1.20;81.00;;;;;;4981711;28;83624;-83
2020/12/31 08:17:34;;;;;;;2.00;1.80;;;1.50;80.20;;;;;;4976995;28;83245;-83
2020/12/31 08:20:01;;;;;;;2.58;2.38;;;1.40;78.80;;;;;;4983334;28;83702;-80
2020/12/31 08:22:39;;;;;;;1.55;1.40;;;1.50;77.20;;;;;;4984427;28;84314;-80
2020/12/31 08:25:10;;;;;;;2.95;2.20;;;1.70;75.50;;;;;;4981190;28;83251;-83
2020/12/31 08:27:39;;;;;;;2.17;1.98;;;1.90;74.10;;;;;;4967779;28;84003;-82
2020/12/31 08:30:10;;;;;;;3.65;1.90;;;2.40;71.70;;;;;;4969177;28;83537;-83
2020/12/31 08:32:50;;;;;;;3.33;2.53;;;3.10;66.10;;;;;;4968247;28;86525;-84
2020/12/31 08:35:43;;;;;;;3.05;2.78;;;4.10;65.20;;;;;;4973829;28;83827;-82
2020/12/31 08:38:13;;;;;;;1.50;1.40;;;3.80;64.00;;;;;;4963584;28;84087;-82
2020/12/31 08:40:47;;;;;;;1.95;1.80;;;4.20;65.30;;;;;;4969091;28;83756;-83
2020/12/31 08:43:25;;;;;;;2.15;1.63;;;4.50;60.70;;;;;;4974154;28;83632;-84
2020/12/31 08:45:56;;;;;;;2.58;2.40;;;4.90;59.30;;;;;;4961238;28;83528;-84
2020/12/31 08:48:30;;;;;;;2.60;1.73;;;4.60;59.40;;;;;;4972119;28;83744;-84
2020/12/31 08:51:15;;;;;;;2.30;2.20;;;4.20;60.80;;;;;;4974491;28;83951;-84
2020/12/31 08:54:14;;;;;;;2.15;1.60;;;4.30;61.00;;;;;;4998312;28;83297;-83
2020/12/31 08:56:40;;;;;;;2.42;2.33;;;4.10;60.20;;;;;;4996145;28;83675;-84
2020/12/31 08:59:08;;;;;;;2.88;2.63;;;4.10;58.90;;;;;;4992102;28;83000;-83
2020/12/31 09:01:34;;;;;;;2.67;1.35;;;4.40;59.40;;;;;;4990981;28;83223;-82
2020/12/31 09:04:16;;;;;;;3.17;2.88;;;4.40;59.80;;;;;;4988235;28;85476;-84
2020/12/31 09:06:42;;;;;;;4.45;2.75;;;3.80;58.70;;;;;;4991446;28;84255;-82
2020/12/31 09:09:19;;;;;;;2.10;1.50;;;4.30;59.10;;;;;;4986330;28;84275;-81
2020/12/31 09:12:04;;;;;;;3.20;1.50;;;4.20;59.80;;;;;;4975326;28;84108;-84
2020/12/31 09:14:35;;;;;;;2.80;2.60;;;4.00;59.20;;;;;;4981759;28;84261;-83
2020/12/31 09:17:31;;;;;;;2.67;2.58;;;4.10;61.20;;;;;;4978217;28;84653;-84
2020/12/31 09:19:57;;;;;;;3.03;2.33;;;3.50;61.20;;;;;;4964623;28;84345;-85
2020/12/31 09:22:26;;;;;;;3.58;2.40;;;3.50;61.70;;;;;;4973007;28;83501;-84
2020/12/31 09:24:53;;;;;;;2.80;2.42;;;3.60;61.60;;;;;;4972682;28;83579;-83
2020/12/31 09:27:26;;;;;;;2.42;1.25;;;3.40;61.60;;;;;;4973886;28;83477;-82
2020/12/31 09:29:59;;;;;;;2.17;2.08;;;3.60;61.60;;;;;;4973362;28;83820;-82
2020/12/31 09:32:26;;;;;;;2.67;2.47;;;3.30;62.00;;;;;;4971888;28;83784;-82
2020/12/31 09:34:51;;;;;;;3.08;2.40;;;3.70;61.00;;;;;;4988089;28;84138;-84
2020/12/31 09:37:17;;;;;;;4.45;1.98;;;3.60;61.50;;;;;;4972535;28;84338;-84
2020/12/31 09:39:46;;;;;;;3.63;2.75;;;4.20;58.80;;;;;;4972519;28;83979;-83
2020/12/31 09:42:12;;;;;;;4.25;2.45;;;4.20;59.10;;;;;;4971163;28;83567;-84
2020/12/31 09:44:38;;;;;;;5.28;2.17;;;4.70;59.80;;;;;;4973913;28;83894;-84
2020/12/31 09:47:04;;;;;;;3.10;2.30;;;5.40;56.90;;;;;;4974282;28;84652;-83
2020/12/31 09:49:30;;;;;;;3.25;3.00;;;7.00;54.80;;;;;;4977939;28;83896;-84
2020/12/31 09:51:56;;;;;;;6.07;3.30;;;7.40;53.50;;;;;;4971674;28;84024;-84
2020/12/31 09:54:23;;;;;;;6.13;2.67;;;;;;;;;;4970256;28;84018;-82
2020/12/31 09:56:48;;;;;;;3.03;2.72;;;7.30;51.00;;;;;;4971567;28;83927;-82
2020/12/31 09:59:14;;;;;;;1.75;1.42;;;7.40;51.40;;;;;;4976566;28;83543;-84
2020/12/31 10:01:40;;;;;;;4.43;3.55;;;7.10;51.20;;;;;;4970394;28;83679;-84
2020/12/31 10:04:05;;;;;;;3.85;2.80;;;7.00;50.70;;;;;;4969376;28;84269;-84
2020/12/31 10:06:31;;;;;;;2.60;2.40;;;6.60;50.90;;;;;;4970106;28;82918;-83
2020/12/31 10:08:57;;;;;;;3.90;2.53;;;;;;;;;;4970201;28;83736;-84
2020/12/31 10:11:23;;;;;;;2.90;2.70;;;5.90;51.60;;;;;;4969829;28;83621;-84
2020/12/31 10:13:48;;;;;;;3.25;2.15;;;5.70;52.40;;;;;;4971494;28;84606;-85
2020/12/31 10:16:14;;;;;;;2.50;2.30;;;5.70;52.40;;;;;;4970772;28;84354;-84
2020/12/31 10:18:40;;;;;;;5.00;2.55;;;5.70;52.70;;;;;;4962779;28;83058;-84
2020/12/31 10:21:06;;;;;;;2.80;2.60;;;6.00;52.90;;;;;;4971962;28;83730;-84
2020/12/31 10:23:31;;;;;;;6.57;2.30;;;6.50;52.60;;;;;;4970817;28;83847;-84
2020/12/31 10:25:57;;;;;;;2.67;2.47;;;6.70;50.90;;;;;;4971881;28;84223;-84
2020/12/31 10:28:23;;;;;;;1.75;1.23;;;6.70;51.30;;;;;;4970300;28;83796;-84
2020/12/31 10:30:49;;;;;;;3.13;1.48;;;7.00;50.20;;;;;;4972358;28;84119;-84
2020/12/31 10:33:15;;;;;;;4.25;2.40;;;6.90;49.30;;;;;;4970108;28;83497;-84
2020/12/31 10:35:42;;;;;;;3.05;2.85;;;7.10;48.80;;;;;;4970324;28;84029;-85
2020/12/31 10:38:07;;;;;;;2.95;2.60;;;7.10;49.40;;;;;;4961643;28;83822;-85
2020/12/31 10:40:33;;;;;;;5.07;2.83;;;7.10;49.90;;;;;;4971531;28;83740;-85
2020/12/31 10:42:59;;;;;;;2.80;2.60;;;6.70;50.10;;;;;;4972324;28;83942;-83
2020/12/31 10:45:25;;;;;;;3.45;2.60;;;6.70;49.40;;;;;;4973772;28;84883;-84
2020/12/31 10:47:51;;;;;;;2.53;2.33;;;7.40;50.10;;;;;;4964656;28;83639;-84
2020/12/31 10:50:17;;;;;;;4.55;2.70;;;6.30;50.90;;;;;;4968853;28;84266;-84
2020/12/31 10:52:43;;;;;;;2.90;2.70;;;6.20;50.80;;;;;;4970468;28;84608;-84
2020/12/31 10:55:08;;;;;;;2.53;2.20;;;6.40;50.20;;;;;;4974889;28;83806;-83
2020/12/31 10:57:34;;;;;;;3.10;2.33;;;6.40;49.50;;;;;;4974988;28;83903;-84
2020/12/31 11:00:00;;;;;;;2.40;2.20;;;;;;;;;;4970240;28;83615;-85
2020/12/31 11:02:26;;;;;;;2.95;2.75;;;;;;;;;;4969056;28;83774;-84
2020/12/31 11:04:52;;;;;;;2.65;2.40;;;6.70;48.80;;;;;;4970743;28;83853;-83
2020/12/31 11:07:17;;;;;;;2.60;2.40;;;6.60;46.90;;;;;;4970173;28;83712;-85
2020/12/31 11:09:43;;;;;;;3.95;2.53;;;6.60;47.40;;;;;;4969789;28;84039;-85
2020/12/31 11:12:09;;;;;;;2.65;2.45;;;6.70;48.60;;;;;;4969295;28;84765;-83
2020/12/31 11:14:34;;;;;;;2.97;2.78;;;6.70;47.40;;;;;;4969406;28;84399;-85
2020/12/31 11:17:00;;;;;;;9.25;6.57;;;7.20;48.30;;;;;;4970230;28;83455;-85
2020/12/31 11:19:26;;;;;;;4.32;2.35;;;7.40;46.20;;;;;;4968644;28;84851;-86
2020/12/31 11:21:52;;;;;;;3.13;2.92;;;7.40;46.80;;;;;;4974790;28;84095;-84
2020/12/31 11:24:18;;;;;;;3.67;3.13;;;7.80;45.30;;;;;;4969354;28;83724;-84
2020/12/31 11:26:44;;;;;;;2.90;2.70;;;7.90;46.20;;;;;;4983218;28;83627;-84
2020/12/31 11:29:10;;;;;;;2.85;2.65;;;8.90;44.70;;;;;;4969826;28;83983;-84
2020/12/31 11:31:36;;;;;;;2.60;2.40;;;8.80;44.60;;;;;;4969011;28;84183;-84
2020/12/31 11:34:02;;;;;;;2.97;2.10;;;8.30;44.10;;;;;;4974331;28;83739;-83
2020/12/31 11:36:29;;;;;;;2.83;2.63;;;8.30;45.00;;;;;;4970652;28;83831;-84
2020/12/31 11:38:55;;;;;;;4.80;2.60;;;7.60;45.70;;;;;;4967398;28;84462;-84
2020/12/31 11:41:22;;;;;;;2.58;2.38;;;7.50;46.80;;;;;;4969673;28;84531;-84
2020/12/31 11:43:48;;;;;;;3.15;2.92;;;7.30;47.00;;;;;;4970303;28;84028;-85
2020/12/31 11:46:14;;;;;;;3.05;2.75;;;7.10;48.10;;;;;;4972023;28;83620;-84
2020/12/31 11:48:40;;;;;;;2.67;2.47;;;6.90;49.00;;;;;;4973127;28;83836;-84
2020/12/31 11:51:11;;;;;;;1.67;1.42;;;6.80;49.30;;;;;;4973198;28;84224;-83
2020/12/31 11:53:37;;;;;;;3.23;2.90;;;6.70;50.20;;;;;;4972590;28;84039;-83
2020/12/31 11:56:04;;;;;;;4.63;2.83;;;6.90;49.80;;;;;;4974542;28;83422;-84
2020/12/31 11:58:29;;;;;;;3.03;2.72;;;6.60;48.70;;;;;;4975650;28;83177;-85
2020/12/31 12:00:56;;;;;;;2.67;2.53;;;7.00;49.10;;;;;;4976603;28;87596;-83
2020/12/31 12:03:23;;;;;;;3.55;3.22;;;6.70;48.40;;;;;;4975563;28;88813;-84
2020/12/31 12:05:52;;;;;;;3.38;2.80;;;6.60;49.60;;;;;;4967183;28;83984;-84
2020/12/31 12:08:21;;;;;;;3.10;2.80;;;6.50;50.40;;;;;;4972259;28;83887;-84
2020/12/31 12:10:48;;;;;;;2.75;1.70;;;6.60;51.20;;;;;;4971756;28;83600;-84
2020/12/31 12:13:14;;;;;;;3.80;2.53;;;6.50;50.40;;;;;;4971827;28;83854;-84
2020/12/31 12:15:42;;;;;;;3.35;2.95;;;6.30;50.90;;;;;;4973731;28;83875;-84
2020/12/31 12:18:11;;;;;;;3.42;2.70;;;6.00;50.80;;;;;;5060414;22;83569;-82
2020/12/31 12:20:37;;;;;;;3.13;2.92;;;5.80;50.70;;;;;;4997258;28;84834;-84
2020/12/31 12:23:03;;;;;;;3.55;3.10;;;5.70;51.50;;;;;;5004410;28;84230;-81
2020/12/31 12:25:28;;;;;;;4.32;3.10;;;5.70;51.20;;;;;;5009968;28;85252;-81
2020/12/31 12:27:54;;;;;;;3.60;2.38;;;5.70;51.60;;;;;;5003567;28;83453;-84
2020/12/31 12:30:20;;;;;;;4.07;2.70;;;6.10;51.20;;;;;;5011563;28;85483;-82
2020/12/31 12:32:46;;;;;;;5.22;3.45;;;6.50;51.50;;;;;;4991629;28;84334;-81
2020/12/31 12:35:14;;;;;;;4.13;3.72;;;7.10;50.90;;;;;;5008581;28;83748;-81
2020/12/31 12:37:39;;;;;;;3.80;3.50;;;7.50;50.10;;;;;;5007306;28;83232;-83
2020/12/31 12:40:07;;;;;;;3.28;3.05;;;8.00;47.90;;;;;;4992983;28;83717;-83
2020/12/31 12:42:33;;;;;;;6.30;3.35;;;8.30;47.00;;;;;;4997383;28;85155;-84
2020/12/31 12:45:00;;;;;;;3.85;3.47;;;8.60;48.20;;;;;;4994574;28;83796;-85
2020/12/31 12:47:26;;;;;;;3.25;2.95;;;8.60;48.70;;;;;;5005806;28;84438;-84
2020/12/31 12:49:53;;;;;;;6.07;3.65;;;9.00;48.90;;;;;;5007255;28;84035;-85
2020/12/31 12:52:25;;;;;;;4.55;3.50;;;8.90;46.90;;;;;;5003179;28;84234;-85
2020/12/31 12:54:51;;;;;;;3.92;3.63;;;8.90;47.40;;;;;;4995605;28;83505;-84
2020/12/31 12:57:17;;;;;;;4.00;3.60;;;8.90;47.00;;;;;;4996608;28;83561;-85
2020/12/31 12:59:42;;;;;;;5.05;3.92;;;8.60;47.30;;;;;;4999188;28;83596;-84
2020/12/31 13:02:08;;;;;;;3.92;3.55;;;8.60;48.20;;;;;;4993890;28;84765;-85
2020/12/31 13:04:34;;;;;;;4.22;2.60;;;8.60;49.20;;;;;;4997966;28;84996;-84
2020/12/31 13:06:59;;;;;;;4.63;3.97;;;8.50;51.50;;;;;;4994617;28;83248;-84
2020/12/31 13:09:26;;;;;;;4.03;3.72;;;8.40;52.30;;;;;;4990734;28;84128;-84
2020/12/31 13:11:52;;;;;;;4.95;3.53;;;8.40;52.60;;;;;;4989635;28;88177;-84
2020/12/31 13:14:18;;;;;;;3.67;3.35;;;8.50;52.40;;;;;;4995180;28;83640;-84
2020/12/31 13:16:43;;;;;;;4.60;4.20;;;8.50;52.80;;;;;;4992457;28;83792;-84
2020/12/31 13:19:09;;;;;;;3.85;3.63;;;8.50;53.00;;;;;;4991431;28;84048;-84
2020/12/31 13:21:35;;;;;;;3.45;2.80;;;8.50;53.50;;;;;;4990527;28;83943;-84
2020/12/31 13:24:01;;;;;;;4.03;3.67;;;8.40;54.10;;;;;;4992172;28;83926;-83
2020/12/31 13:26:27;;;;;;;4.38;3.97;;;8.60;54.20;;;;;;4993413;28;83680;-85
2020/12/31 13:28:53;;;;;;;4.10;3.78;;;8.50;54.80;;;;;;4992503;28;83781;-83
2020/12/31 13:31:19;;;;;;;5.38;4.03;;;8.80;55.00;;;;;;4996283;28;84172;-85
2020/12/31 13:33:49;;;;;;;4.57;4.15;;;8.80;55.60;;;;;;4996277;28;84287;-84
2020/12/31 13:36:15;;;;;;;4.17;3.87;;;9.00;55.20;;;;;;5006410;28;83257;-84
2020/12/31 13:38:41;;;;;;;4.95;4.43;;;9.50;55.10;;;;;;4994892;28;84135;-85
2020/12/31 13:41:06;;;;;;;4.47;4.18;;;10.20;54.30;;;;;;4988778;28;85231;-84
2020/12/31 13:43:32;;;;;;;4.07;3.70;;;10.60;53.00;;;;;;4990400;28;83836;-84
2020/12/31 13:45:57;;;;;;;4.63;3.42;;;10.60;53.10;;;;;;4989243;28;83509;-84
2020/12/31 13:48:23;;;;;;;4.50;4.10;;;10.60;53.40;;;;;;4987670;28;85594;-84
2020/12/31 13:50:49;;;;;;;9.80;4.18;;;10.60;52.80;;;;;;4984352;28;84122;-85
2020/12/31 13:53:15;;;;;;;4.03;3.38;;;10.40;53.30;;;;;;4981215;28;83542;-84
2020/12/31 13:55:41;;;;;;;4.50;3.80;;;10.40;53.40;;;;;;4990143;28;83723;-85
2020/12/31 13:58:06;;;;;;;4.85;4.45;;;10.30;53.50;;;;;;4993735;28;85195;-84
2020/12/31 14:00:32;;;;;;;5.00;4.18;;;10.10;53.80;;;;;;4988231;28;83882;-84
2020/12/31 14:03:11;;;;;;;4.40;2.92;;;9.80;54.20;;;;;;4991779;28;83849;-84
2020/12/31 14:06:54;;;;;;;5.82;4.22;;;9.50;55.00;;;;;;4971379;28;83670;-83
2020/12/31 14:09:47;;;;;;;5.10;4.68;;;8.50;57.50;;;;;;4993497;28;83671;-83
2020/12/31 14:12:37;;;;;;;4.22;3.83;;;8.20;58.40;;;;;;5007188;22;85373;-82
2020/12/31 14:17:54;;;;;;;4.18;3.53;;;8.30;58.90;;;;;;5320062;22;84802;-85
2020/12/31 14:23:11;;;;;;;5.07;4.35;;;8.90;59.10;;;;;;5212689;22;86423;-83
2020/12/31 14:30:49;;;;;;;5.25;4.57;;;9.60;57.10;;;;;;5111025;22;86637;-83
2020/12/31 14:33:15;;;;;;;6.15;5.45;;;9.80;57.40;;;;;;4976328;28;83674;-84
2020/12/31 14:35:40;;;;;;;6.68;5.38;;;9.80;57.10;;;;;;4969371;28;83698;-85
2020/12/31 14:38:06;;;;;;;6.50;5.47;;;9.60;56.40;;;;;;4969935;28;84076;-84
2020/12/31 14:40:32;;;;;;;7.65;5.60;;;9.60;57.30;;;;;;4972631;28;83579;-84
2020/12/31 14:42:58;;;;;;;7.85;6.30;;;9.40;57.60;;;;;;4972101;28;83826;-84
2020/12/31 14:45:25;;;;;;;5.70;5.25;;;8.90;57.70;;;;;;4965987;28;83889;-84
2020/12/31 14:47:55;;;;;;;6.22;5.65;;;8.70;58.50;;;;;;4962850;28;83817;-85
2020/12/31 14:50:21;;;;;;;5.90;5.40;;;8.40;59.30;;;;;;4954393;28;85253;-85
2020/12/31 14:52:47;;;;;;;5.68;5.00;;;8.40;59.70;;;;;;4980537;28;84288;-83
2020/12/31 14:55:13;;;;;;;6.13;5.25;;;7.70;61.10;;;;;;4969956;28;83757;-85
2020/12/31 14:57:39;;;;;;;5.78;5.18;;;7.50;62.50;;;;;;4974771;28;83607;-84
2020/12/31 15:00:05;;;;;;;6.03;4.00;;;7.40;62.90;;;;;;4966658;28;83840;-84
2020/12/31 15:02:31;;;;;;;5.88;5.38;;;6.90;64.10;;;;;;4964884;28;85157;-84
2020/12/31 15:04:57;;;;;;;4.53;3.80;;;6.90;64.40;;;;;;4964410;28;83889;-84
2020/12/31 15:07:22;;;;;;;6.53;5.65;;;6.40;66.00;;;;;;4973589;28;83663;-84
2020/12/31 15:09:48;;;;;;;7.20;6.20;;;;;;;;;;4968677;28;84162;-84
2020/12/31 15:12:16;;;;;;;6.75;6.05;;;5.90;66.80;;;;;;4967263;28;86993;-84
2020/12/31 15:14:43;;;;;;;8.00;5.90;;;5.70;67.90;;;;;;4964481;28;83691;-83
2020/12/31 15:17:09;;;;;;;6.95;5.80;;;5.70;68.40;;;;;;4967464;28;83623;-83
2020/12/31 15:19:34;;;;;;;8.95;6.65;;;5.50;69.60;;;;;;4960293;28;85214;-83
2020/12/31 15:22:03;;;;;;;8.23;6.65;;;5.50;71.00;;;;;;4969585;28;83787;-83
2020/12/31 15:24:29;;;;;;;8.20;6.97;;;;;;;;;;4969853;28;83708;-82
2020/12/31 15:26:55;;;;;;;8.77;5.75;;;5.10;70.30;;;;;;4963861;28;83719;-82
2020/12/31 15:29:21;;;;;;;10.10;7.88;;;;;;;;;;4976779;28;84116;-84
2020/12/31 15:31:51;;;;;;;10.88;7.93;;;5.00;72.40;;;;;;4963166;28;86119;-84
2020/12/31 15:34:16;;;;;;;11.65;8.07;;;4.80;72.50;;;;;;4966375;28;83089;-84
2020/12/31 15:36:42;;;;;;;12.95;8.40;;;4.80;73.00;;;;;;4966251;28;84026;-84
2020/12/31 15:39:08;;;;;;;10.45;7.70;;;4.60;74.10;;;;;;4960573;28;85432;-84
2020/12/31 15:41:33;;;;;;;10.10;7.38;;;4.60;74.40;;;;;;4964876;28;84343;-84
2020/12/31 15:43:59;;;;;;;13.38;8.75;;;4.50;74.90;;;;;;4980967;28;83774;-83
2020/12/31 15:46:26;;;;;;;12.55;8.00;;;4.50;74.90;;;;;;4961346;28;83677;-84
2020/12/31 15:48:51;;;;;;;14.50;8.40;;;4.40;75.10;;;;;;4966197;28;84575;-84
2020/12/31 15:51:18;;;;;;;12.68;7.65;;;4.40;75.80;;;;;;4977039;28;84186;-82
2020/12/31 15:53:43;;;;;;;14.70;8.35;;;4.20;76.00;;;;;;4967527;28;83801;-84
2020/12/31 15:56:14;;;;;;;12.43;8.95;;;4.30;76.50;;;;;;4954936;28;83918;-84
2020/12/31 15:58:40;;;;;;;14.20;9.02;;;4.20;76.50;;;;;;4967413;28;85452;-84
2020/12/31 16:01:06;;;;;;;11.65;8.10;;;;;;;;;;4957309;28;85452;-83
2020/12/31 16:03:32;;;;;;;15.18;8.88;;;;;;;;;;4966246;28;83541;-83
2020/12/31 16:05:58;;;;;;;11.45;8.10;;;3.90;78.40;;;;;;4958810;28;83808;-85
2020/12/31 16:08:24;;;;;;;14.52;8.93;;;;;;;;;;4959680;28;88058;-84
2020/12/31 16:10:50;;;;;;;14.60;10.05;;;4.00;78.20;;;;;;4959158;28;85074;-85
2020/12/31 16:13:16;;;;;;;12.52;9.18;;;4.00;77.90;;;;;;4966642;28;84241;-84
2020/12/31 16:15:42;;;;;;;16.08;11.10;;;4.10;77.90;;;;;;4964678;28;84035;-83
2020/12/31 16:18:07;;;;;;;18.33;10.93;;;4.00;78.60;;;;;;4968430;28;83938;-83
2020/12/31 16:20:33;;;;;;;15.93;10.40;;;4.00;78.50;;;;;;4960049;28;84749;-82
2020/12/31 16:23:03;;;;;;;14.85;10.05;;;4.00;78.70;;;;;;4963730;28;83665;-82
2020/12/31 16:25:29;;;;;;;16.55;10.25;;;4.00;77.80;;;;;;4969322;28;84178;-83
2020/12/31 16:27:57;;;;;;;14.57;9.32;;;3.70;78.80;;;;;;4964116;28;84073;-81
2020/12/31 16:30:23;;;;;;;15.35;10.18;;;3.90;78.40;;;;;;4967876;28;84364;-82
2020/12/31 16:32:51;;;;;;;16.33;9.60;;;3.90;77.40;;;;;;4958322;28;84217;-83
2020/12/31 16:35:17;;;;;;;15.43;9.57;;;4.00;77.50;;;;;;4975141;28;83558;-82
2020/12/31 16:37:44;;;;;;;16.63;9.98;;;3.90;76.10;;;;;;4983824;28;84968;-83
2020/12/31 16:40:10;;;;;;;18.35;11.70;;;3.80;75.90;;;;;;4966426;28;84016;-86
2020/12/31 16:42:39;;;;;;;13.93;10.00;;;3.70;75.80;;;;;;4972865;28;83819;-84
2020/12/31 16:45:10;;;;;;;13.00;8.60;;;3.80;74.80;;;;;;4986998;28;83551;-85
2020/12/31 16:47:38;;;;;;;12.55;7.75;;;3.60;73.80;;;;;;4987865;28;83976;-83
2020/12/31 16:50:05;;;;;;;10.60;7.20;;;3.50;74.30;;;;;;4976955;28;85297;-86
2020/12/31 16:52:31;;;;;;;12.85;8.23;;;;;;;;;;4966896;28;84400;-85
2020/12/31 16:54:59;;;;;;;14.55;10.98;;;3.60;76.30;;;;;;4964498;28;83333;-84
2020/12/31 16:57:26;;;;;;;14.90;9.85;;;3.50;75.90;;;;;;4970157;28;84599;-84
2020/12/31 16:59:52;;;;;;;14.65;8.70;;;3.50;76.10;;;;;;4964854;28;83864;-86